Time;durP1;ratioP1;P1;durP2;ratioP2;P2;SDS_P1;SDS_P2;PMS_P1;PMS_P2;Temp;Humidity;BMP_temperature;BMP_pressure;BME280_temperature;BME280_humidity;BME280_pressure;Samples;Min_cycle;Max_cycle;Signal;HPM_P1;HPM_P2
2022/11/28 00:02:28;;;;;;;14.88;3.40;;;8.90;72.30;;;;;;5065967;28;20056;-79
2022/11/28 00:05:12;;;;;;;13.68;3.75;;;8.90;72.30;;;;;;5066364;28;20146;-77
2022/11/28 00:07:57;;;;;;;9.65;3.38;;;8.90;72.30;;;;;;5063179;28;20064;-77
2022/11/28 00:10:42;;;;;;;12.43;3.72;;;8.90;72.40;;;;;;5065876;28;20074;-77
2022/11/28 00:13:27;;;;;;;11.32;4.03;;;8.90;72.40;;;;;;5051534;28;20051;-76
2022/11/28 00:16:20;;;;;;;12.98;3.15;;;8.80;72.30;;;;;;5052287;28;20076;-78
2022/11/28 00:19:05;;;;;;;18.10;4.78;;;8.80;72.30;;;;;;5058613;28;20082;-77
2022/11/28 00:21:50;;;;;;;15.25;3.45;;;8.80;72.30;;;;;;5053347;28;20067;-78
2022/11/28 00:24:34;;;;;;;11.68;3.03;;;8.70;72.60;;;;;;5066290;28;20079;-79
2022/11/28 00:27:19;;;;;;;15.00;3.65;;;8.70;72.10;;;;;;5063538;28;20302;-75
2022/11/28 00:30:04;;;;;;;14.15;3.63;;;8.70;72.10;;;;;;5055733;28;20132;-78
2022/11/28 00:32:49;;;;;;;13.48;3.17;;;8.70;72.20;;;;;;5063854;28;20047;-78
2022/11/28 00:35:33;;;;;;;10.30;2.83;;;8.60;72.00;;;;;;5064302;28;20340;-79
2022/11/28 00:38:18;;;;;;;11.88;2.83;;;8.60;72.00;;;;;;5061141;28;20074;-77
2022/11/28 00:41:06;;;;;;;10.82;3.28;;;8.60;72.00;;;;;;5061638;28;20526;-77
2022/11/28 00:43:51;;;;;;;9.60;2.63;;;8.50;71.90;;;;;;5054344;28;20048;-78
2022/11/28 00:46:36;;;;;;;11.80;3.38;;;8.50;71.90;;;;;;5063938;28;20917;-75
2022/11/28 00:49:21;;;;;;;12.75;2.97;;;8.40;71.70;;;;;;5088204;28;20056;-75
2022/11/28 00:52:05;;;;;;;12.38;3.08;;;8.40;71.70;;;;;;5088126;28;20050;-77
2022/11/28 00:54:50;;;;;;;12.00;3.03;;;8.40;71.80;;;;;;5085427;28;20043;-78
2022/11/28 00:57:35;;;;;;;9.95;2.78;;;8.40;71.80;;;;;;5074143;28;20035;-77
2022/11/28 01:00:20;;;;;;;10.20;3.17;;;8.30;71.70;;;;;;5068540;28;20070;-76
2022/11/28 01:03:04;;;;;;;14.52;3.85;;;8.30;71.70;;;;;;5060356;28;20213;-77
2022/11/28 01:05:49;;;;;;;8.13;2.42;;;8.30;71.70;;;;;;5070843;28;20127;-76
2022/11/28 01:08:34;;;;;;;12.48;3.90;;;8.30;71.80;;;;;;5068020;28;20229;-79
2022/11/28 01:11:20;;;;;;;10.25;3.50;;;8.20;71.60;;;;;;5073711;28;20040;-80
2022/11/28 01:14:06;;;;;;;10.98;2.75;;;8.30;71.80;;;;;;5070210;28;20043;-78
2022/11/28 01:16:51;;;;;;;9.50;3.67;;;8.30;71.80;;;;;;5066171;28;20044;-78
2022/11/28 01:19:35;;;;;;;10.65;3.13;;;8.30;71.80;;;;;;5062302;28;20047;-79
2022/11/28 01:22:20;;;;;;;14.88;3.72;;;8.20;71.60;;;;;;5068314;28;20071;-76
2022/11/28 01:25:05;;;;;;;8.77;3.38;;;8.20;71.60;;;;;;5066129;28;20158;-78
2022/11/28 01:27:50;;;;;;;13.32;3.65;;;8.20;71.70;;;;;;5066027;28;20083;-77
2022/11/28 01:30:35;;;;;;;9.30;2.72;;;8.20;71.70;;;;;;5065280;28;20047;-77
2022/11/28 01:33:19;;;;;;;11.88;3.03;;;8.20;71.70;;;;;;5055789;28;20097;-77
2022/11/28 01:36:04;;;;;;;14.27;2.60;;;8.20;71.70;;;;;;5063801;28;20067;-77
2022/11/28 01:38:49;;;;;;;9.85;3.38;;;8.20;71.70;;;;;;5067446;28;20107;-76
2022/11/28 01:41:34;;;;;;;10.27;2.83;;;8.20;71.70;;;;;;5064052;28;20052;-77
2022/11/28 01:44:18;;;;;;;7.95;2.25;;;8.20;71.70;;;;;;5053454;28;20043;-78
2022/11/28 01:47:03;;;;;;;8.32;2.35;;;8.20;71.70;;;;;;5061146;28;20081;-77
2022/11/28 01:49:49;;;;;;;8.70;2.28;;;8.10;71.80;;;;;;5064419;28;20059;-77
2022/11/28 01:52:37;;;;;;;8.98;2.40;;;8.10;71.70;;;;;;5051174;28;20040;-76
2022/11/28 01:55:25;;;;;;;13.82;4.07;;;8.20;71.90;;;;;;5061996;28;20120;-76
2022/11/28 01:58:11;;;;;;;8.27;2.70;;;8.10;71.70;;;;;;5046455;28;20142;-78
2022/11/28 02:00:56;;;;;;;10.60;2.90;;;8.10;71.70;;;;;;5056325;28;20048;-77
2022/11/28 02:03:47;;;;;;;7.70;3.15;;;8.20;71.90;;;;;;5064216;28;20055;-77
2022/11/28 02:06:32;;;;;;;8.57;2.63;;;8.20;71.90;;;;;;5066411;28;20079;-77
2022/11/28 02:09:17;;;;;;;8.85;2.22;;;8.20;71.90;;;;;;5057251;28;20146;-75
2022/11/28 02:12:21;;;;;;;13.43;2.85;;;8.20;71.90;;;;;;5071299;28;20163;-76
2022/11/28 02:15:31;;;;;;;12.77;3.03;;;8.20;72.00;;;;;;5069249;28;20043;-76
2022/11/28 02:18:51;;;;;;;9.23;2.88;;;8.30;72.10;;;;;;5058560;28;20044;-77
2022/11/28 02:22:11;;;;;;;8.52;2.67;;;8.30;72.10;;;;;;5067321;28;20086;-77
2022/11/28 02:25:37;;;;;;;7.00;1.98;;;8.30;72.10;;;;;;5069528;28;20094;-75
2022/11/28 02:28:39;;;;;;;9.18;3.15;;;8.40;72.20;;;;;;5046494;28;20074;-77
2022/11/28 02:31:35;;;;;;;10.55;2.10;;;8.40;72.20;;;;;;5045800;28;20040;-77
2022/11/28 02:34:30;;;;;;;6.28;2.20;;;8.40;72.10;;;;;;5068011;28;20090;-77
2022/11/28 02:37:33;;;;;;;6.80;2.95;;;8.40;72.20;;;;;;5046644;28;20105;-76
2022/11/28 02:40:23;;;;;;;8.80;3.08;;;8.40;72.30;;;;;;5055464;28;20094;-76
2022/11/28 02:43:20;;;;;;;8.88;2.40;;;8.40;72.20;;;;;;5068704;28;20079;-77
2022/11/28 02:46:15;;;;;;;5.72;1.90;;;8.50;72.40;;;;;;5071775;22;20609;-83
2022/11/28 02:49:22;;;;;;;8.88;1.90;;;8.50;72.40;;;;;;5079073;28;20063;-82
2022/11/28 02:52:14;;;;;;;8.30;2.72;;;8.50;72.50;;;;;;5074391;28;20090;-79
2022/11/28 02:54:59;;;;;;;7.88;1.90;;;8.50;72.40;;;;;;5076551;28;20063;-80
2022/11/28 02:57:49;;;;;;;8.88;2.40;;;8.50;72.40;;;;;;5076339;28;20031;-80
2022/11/28 03:00:36;;;;;;;10.05;2.13;;;8.50;72.40;;;;;;5076862;28;20047;-81
2022/11/28 03:03:21;;;;;;;11.32;1.95;;;8.50;72.40;;;;;;5078032;28;20051;-80
2022/11/28 03:06:11;;;;;;;11.43;2.70;;;8.50;72.90;;;;;;5081870;28;20040;-81
2022/11/28 03:09:26;;;;;;;15.20;2.17;;;8.50;72.50;;;;;;5074599;28;20058;-82
2022/11/28 03:12:32;;;;;;;8.25;1.80;;;8.50;72.50;;;;;;5063576;28;20067;-81
2022/11/28 03:15:21;;;;;;;8.98;2.17;;;8.50;72.50;;;;;;5066872;28;20070;-81
2022/11/28 03:18:08;;;;;;;12.68;2.65;;;8.50;72.50;;;;;;5081816;28;20586;-79
2022/11/28 03:21:24;;;;;;;7.13;2.22;;;8.50;72.60;;;;;;5084713;28;20427;-82
2022/11/28 03:24:24;;;;;;;6.35;2.05;;;8.50;72.60;;;;;;5083739;28;20110;-81
2022/11/28 03:27:24;;;;;;;8.57;1.83;;;8.50;72.60;;;;;;5078635;28;20376;-82
2022/11/28 03:30:13;;;;;;;5.50;1.50;;;8.50;72.70;;;;;;5080404;28;20490;-83
2022/11/28 03:33:00;;;;;;;8.10;2.33;;;8.50;72.70;;;;;;5064798;28;20036;-82
2022/11/28 03:35:49;;;;;;;7.10;1.98;;;8.40;72.50;;;;;;5075012;28;20055;-81
2022/11/28 03:38:40;;;;;;;10.82;2.35;;;8.40;72.50;;;;;;5064544;28;20127;-81
2022/11/28 03:41:37;;;;;;;6.28;1.50;;;8.40;72.60;;;;;;5066799;28;20089;-81
2022/11/28 03:44:30;;;;;;;9.45;1.83;;;8.40;72.60;;;;;;5080646;28;20051;-81
2022/11/28 03:47:15;;;;;;;9.48;1.95;;;8.40;72.60;;;;;;5086385;28;20081;-82
2022/11/28 03:50:05;;;;;;;7.22;1.92;;;8.40;72.60;;;;;;5096347;28;20055;-80
2022/11/28 03:52:55;;;;;;;6.00;1.73;;;8.40;72.60;;;;;;5078395;28;20047;-81
2022/11/28 03:55:47;;;;;;;9.30;3.60;;;8.40;72.70;;;;;;5089259;28;20047;-80
2022/11/28 03:58:46;;;;;;;9.55;1.70;;;8.30;72.50;;;;;;5097668;28;20097;-82
2022/11/28 04:01:51;;;;;;;7.15;2.33;;;8.40;72.70;;;;;;5097208;28;20415;-82
2022/11/28 04:04:54;;;;;;;5.90;1.63;;;8.30;72.50;;;;;;5073145;28;20034;-81
2022/11/28 04:08:01;;;;;;;9.05;2.05;;;8.30;72.50;;;;;;5087342;28;20046;-81
2022/11/28 04:11:00;;;;;;;8.02;1.77;;;8.30;72.50;;;;;;5084952;28;20039;-80
2022/11/28 04:13:57;;;;;;;7.40;1.80;;;8.30;72.60;;;;;;5097155;28;20047;-81
2022/11/28 04:16:52;;;;;;;5.25;1.13;;;8.20;72.40;;;;;;5090917;28;20043;-83
2022/11/28 04:19:42;;;;;;;10.35;2.22;;;8.20;72.40;;;;;;5093839;28;20062;-81
2022/11/28 04:22:30;;;;;;;9.77;1.60;;;8.20;72.50;;;;;;5096642;28;20090;-81
2022/11/28 04:25:16;;;;;;;7.97;1.90;;;8.20;72.50;;;;;;5093715;28;20263;-80
2022/11/28 04:28:05;;;;;;;8.00;1.98;;;8.20;72.50;;;;;;5086638;28;20051;-80
2022/11/28 04:30:52;;;;;;;4.75;2.03;;;8.20;72.60;;;;;;5089083;28;20538;-79
2022/11/28 04:33:42;;;;;;;10.50;2.10;;;8.10;72.40;;;;;;5076946;28;20479;-80
2022/11/28 04:36:29;;;;;;;11.38;1.83;;;8.20;72.60;;;;;;5081927;28;20039;-79
2022/11/28 04:39:20;;;;;;;9.48;1.70;;;8.10;72.40;;;;;;5095464;28;20070;-80
2022/11/28 04:42:10;;;;;;;6.13;1.75;;;8.20;72.60;;;;;;5091947;28;20127;-79
2022/11/28 04:45:01;;;;;;;9.73;1.95;;;8.10;72.40;;;;;;5090681;28;20042;-81
2022/11/28 04:47:46;;;;;;;9.35;3.17;;;8.10;72.40;;;;;;5080211;28;20086;-80
2022/11/28 04:50:40;;;;;;;8.65;1.80;;;8.10;72.40;;;;;;5092501;28;20047;-81
2022/11/28 04:53:40;;;;;;;4.78;1.35;;;8.00;72.30;;;;;;5090211;28;20043;-80
2022/11/28 04:56:32;;;;;;;9.02;1.65;;;8.10;72.50;;;;;;5093966;28;20055;-79
2022/11/28 04:59:17;;;;;;;5.22;1.60;;;8.00;72.80;;;;;;5096826;28;20123;-81
2022/11/28 05:02:04;;;;;;;8.55;1.73;;;8.00;72.40;;;;;;5081841;28;20127;-81
2022/11/28 05:04:48;;;;;;;13.50;2.22;;;8.00;72.40;;;;;;5095073;28;20081;-80
2022/11/28 05:07:33;;;;;;;7.88;1.48;;;7.90;72.20;;;;;;5081722;28;20042;-81
2022/11/28 05:10:18;;;;;;;6.10;1.90;;;7.90;72.30;;;;;;5095893;28;20055;-81
2022/11/28 05:13:03;;;;;;;7.95;2.50;;;7.90;72.30;;;;;;5091182;28;20254;-80
2022/11/28 05:15:47;;;;;;;7.40;1.88;;;7.90;72.30;;;;;;5085058;28;20039;-80
2022/11/28 05:18:32;;;;;;;5.85;1.80;;;7.90;72.30;;;;;;5078456;28;20039;-82
2022/11/28 05:21:17;;;;;;;6.68;1.67;;;7.90;72.40;;;;;;5093585;28;20055;-81
2022/11/28 05:24:01;;;;;;;12.27;2.42;;;7.80;72.20;;;;;;5092380;28;20043;-80
2022/11/28 05:26:46;;;;;;;8.23;2.05;;;7.90;72.40;;;;;;5093577;28;20094;-81
2022/11/28 05:29:30;;;;;;;9.93;2.90;;;7.80;72.30;;;;;;5093774;28;20486;-81
2022/11/28 05:32:15;;;;;;;7.53;2.05;;;7.80;72.20;;;;;;5092981;28;20055;-82
2022/11/28 05:34:59;;;;;;;9.65;1.58;;;7.80;72.20;;;;;;5093872;28;20095;-80
2022/11/28 05:37:44;;;;;;;9.68;2.20;;;7.80;72.20;;;;;;5092836;28;20143;-81
2022/11/28 05:40:29;;;;;;;8.15;2.20;;;7.80;72.30;;;;;;5083674;28;20044;-81
2022/11/28 05:43:13;;;;;;;6.25;2.60;;;7.80;72.30;;;;;;5095983;28;20055;-81
2022/11/28 05:45:58;;;;;;;7.78;1.88;;;7.70;72.20;;;;;;5090965;28;20502;-82
2022/11/28 05:48:43;;;;;;;7.70;1.90;;;7.70;72.20;;;;;;5089867;28;20525;-79
2022/11/28 05:51:27;;;;;;;9.45;1.95;;;7.70;72.20;;;;;;5084580;28;20116;-81
2022/11/28 05:54:12;;;;;;;7.43;1.60;;;7.70;72.20;;;;;;5083976;28;20063;-82
2022/11/28 05:56:57;;;;;;;10.43;2.10;;;7.70;72.20;;;;;;5093787;28;20050;-81
2022/11/28 05:59:41;;;;;;;7.57;2.10;;;7.70;72.20;;;;;;5084019;28;20384;-82
2022/11/28 06:02:26;;;;;;;7.85;2.13;;;7.70;72.30;;;;;;5087648;28;20800;-81
2022/11/28 06:05:10;;;;;;;6.25;1.60;;;7.70;72.30;;;;;;5087497;28;20055;-81
2022/11/28 06:07:54;;;;;;;6.65;1.77;;;7.70;72.30;;;;;;5086613;28;20027;-81
2022/11/28 06:10:40;;;;;;;12.32;2.08;;;7.70;72.30;;;;;;5066196;28;20120;-81
2022/11/28 06:13:25;;;;;;;7.15;1.90;;;7.70;72.40;;;;;;5084599;28;20074;-81
2022/11/28 06:16:15;;;;;;;9.25;1.77;;;7.70;72.40;;;;;;5078471;28;20047;-81
2022/11/28 06:19:01;;;;;;;7.60;1.85;;;7.70;72.40;;;;;;5076546;28;20829;-87
2022/11/28 06:21:49;;;;;;;6.18;2.90;;;7.80;72.60;;;;;;5083423;28;20455;-80
2022/11/28 06:24:33;;;;;;;4.28;1.77;;;7.80;72.50;;;;;;5081945;28;20058;-79
2022/11/28 06:27:17;;;;;;;6.40;1.60;;;7.80;72.50;;;;;;5081826;28;20051;-80
2022/11/28 06:30:03;;;;;;;4.70;1.60;;;7.80;72.50;;;;;;5081743;28;20047;-81
2022/11/28 06:32:47;;;;;;;7.60;1.73;;;7.80;72.50;;;;;;5091576;28;20092;-88
2022/11/28 06:35:32;;;;;;;4.82;2.05;;;7.80;72.40;;;;;;5075145;28;20051;-93
2022/11/28 06:38:16;;;;;;;8.75;2.45;;;7.80;72.50;;;;;;5093677;28;20035;-94
2022/11/28 06:41:05;;;;;;;7.63;1.65;;;7.80;72.50;;;;;;5093135;28;20039;-93
2022/11/28 06:43:50;;;;;;;8.40;1.98;;;7.70;72.30;;;;;;5092144;28;20051;-89
2022/11/28 06:46:34;;;;;;;5.68;2.05;;;7.70;72.30;;;;;;5081942;28;20101;-80
2022/11/28 06:49:19;;;;;;;7.63;2.08;;;7.70;72.40;;;;;;5082306;28;20090;-86
2022/11/28 06:52:03;;;;;;;10.00;3.10;;;7.60;72.30;;;;;;5093111;28;20046;-82
2022/11/28 06:54:48;;;;;;;8.95;2.38;;;7.60;72.30;;;;;;5093964;28;20132;-87
2022/11/28 06:57:33;;;;;;;7.00;1.98;;;7.70;72.70;;;;;;5080304;28;20034;-80
2022/11/28 07:00:17;;;;;;;7.35;2.30;;;7.60;72.50;;;;;;5089102;28;20039;-80
2022/11/28 07:03:02;;;;;;;7.55;2.58;;;7.60;72.60;;;;;;5081666;28;20036;-90
2022/11/28 07:05:46;;;;;;;10.07;2.78;;;7.60;72.60;;;;;;5103809;28;20081;-93
2022/11/28 07:08:31;;;;;;;7.70;2.30;;;7.60;72.60;;;;;;5106343;28;20065;-88
2022/11/28 07:11:25;;;;;;;4.35;1.95;;;7.60;72.70;;;;;;5102579;28;20036;-86
2022/11/28 07:14:10;;;;;;;6.03;2.10;;;7.60;72.70;;;;;;5098671;28;20034;-93
2022/11/28 07:16:54;;;;;;;6.65;2.35;;;7.70;73.00;;;;;;5097526;28;20077;-87
2022/11/28 07:19:39;;;;;;;5.30;1.95;;;7.70;73.10;;;;;;5092253;28;20387;-82
2022/11/28 07:22:24;;;;;;;5.40;2.72;;;7.80;73.20;;;;;;5083480;28;20319;-93
2022/11/28 07:25:09;;;;;;;6.88;2.00;;;7.80;73.20;;;;;;5075586;28;20074;-79
2022/11/28 07:27:53;;;;;;;7.10;2.47;;;7.80;73.20;;;;;;5085635;28;20070;-79
2022/11/28 07:30:38;;;;;;;9.55;2.85;;;7.90;73.30;;;;;;5085583;28;20399;-93
2022/11/28 07:33:22;;;;;;;4.75;2.10;;;7.80;73.20;;;;;;5077576;28;20051;-87
2022/11/28 07:36:12;;;;;;;6.90;1.98;;;7.90;73.40;;;;;;5079026;28;20044;-80
2022/11/28 07:38:59;;;;;;;7.90;2.88;;;7.90;73.40;;;;;;5086407;28;20062;-86
2022/11/28 07:41:43;;;;;;;5.07;2.17;;;7.90;73.40;;;;;;5086538;28;20471;-84
2022/11/28 07:44:28;;;;;;;8.27;2.60;;;7.90;73.40;;;;;;5069851;28;20035;-86
2022/11/28 07:47:12;;;;;;;4.53;2.15;;;7.90;73.50;;;;;;5075697;28;20090;-89
2022/11/28 07:49:57;;;;;;;4.72;2.00;;;7.90;73.40;;;;;;5077870;28;20410;-88
2022/11/28 07:52:41;;;;;;;6.50;2.75;;;7.90;73.40;;;;;;5074764;28;20177;-85
2022/11/28 07:55:26;;;;;;;4.93;2.47;;;7.90;73.40;;;;;;5075576;28;20334;-82
2022/11/28 07:58:10;;;;;;;9.13;2.88;;;7.90;73.40;;;;;;5086065;28;20085;-81
2022/11/28 08:00:55;;;;;;;5.80;2.83;;;7.90;73.40;;;;;;5081777;28;20050;-79
2022/11/28 08:03:39;;;;;;;7.35;2.90;;;7.90;73.40;;;;;;5087039;28;20054;-85
2022/11/28 08:06:29;;;;;;;8.82;3.20;;;7.90;73.40;;;;;;5081104;28;20043;-86
2022/11/28 08:09:14;;;;;;;6.93;3.30;;;8.00;73.60;;;;;;5080697;28;20055;-84
2022/11/28 08:11:58;;;;;;;8.20;2.90;;;8.00;73.50;;;;;;5083529;28;20395;-84
2022/11/28 08:14:43;;;;;;;10.15;2.88;;;7.90;73.30;;;;;;5083830;28;20470;-85
2022/11/28 08:17:27;;;;;;;10.75;3.30;;;8.00;73.50;;;;;;5083888;28;20142;-85
2022/11/28 08:20:12;;;;;;;6.43;3.03;;;8.00;73.50;;;;;;5073759;28;20070;-86
2022/11/28 08:22:57;;;;;;;5.70;2.63;;;8.00;73.40;;;;;;5081095;28;20039;-87
2022/11/28 08:25:41;;;;;;;6.13;3.20;;;8.00;73.50;;;;;;5083943;28;20069;-82
2022/11/28 08:28:27;;;;;;;7.93;4.18;;;8.00;73.40;;;;;;5083236;28;20051;-83
2022/11/28 08:31:20;;;;;;;8.38;3.15;;;8.00;73.40;;;;;;5083677;28;20435;-83
2022/11/28 08:34:06;;;;;;;9.38;3.03;;;8.00;73.30;;;;;;5083789;28;20046;-82
2022/11/28 08:36:51;;;;;;;5.50;2.67;;;8.00;73.30;;;;;;5077379;28;20082;-82
2022/11/28 08:39:35;;;;;;;7.13;2.15;;;8.10;73.40;;;;;;5081439;28;20093;-87
2022/11/28 08:42:20;;;;;;;7.53;3.40;;;8.10;73.40;;;;;;5067620;28;20038;-90
2022/11/28 08:45:05;;;;;;;6.03;2.55;;;8.10;73.30;;;;;;5067019;28;20792;-89
2022/11/28 08:47:50;;;;;;;6.43;2.42;;;8.00;73.10;;;;;;5083374;28;20054;-84
2022/11/28 08:50:34;;;;;;;4.03;2.15;;;8.10;73.30;;;;;;5082393;28;20139;-89
2022/11/28 08:53:19;;;;;;;7.53;2.90;;;8.10;73.20;;;;;;5084238;28;20043;-81
2022/11/28 08:56:04;;;;;;;7.03;2.60;;;8.10;73.20;;;;;;5074787;28;20043;-80
2022/11/28 08:58:48;;;;;;;5.50;2.97;;;8.10;73.20;;;;;;5078020;28;20043;-80
2022/11/28 09:01:33;;;;;;;8.85;2.95;;;8.10;73.20;;;;;;5082609;28;20047;-86
2022/11/28 09:04:18;;;;;;;6.82;3.17;;;8.10;73.20;;;;;;5085058;28;20150;-82
2022/11/28 09:07:03;;;;;;;6.63;3.30;;;8.10;73.20;;;;;;5081727;28;20039;-82
2022/11/28 09:09:47;;;;;;;8.13;3.10;;;8.10;73.20;;;;;;5081575;28;20537;-82
2022/11/28 09:12:32;;;;;;;6.78;2.55;;;8.10;73.20;;;;;;5084012;28;20070;-80
2022/11/28 09:15:17;;;;;;;9.90;2.40;;;8.10;73.20;;;;;;5084360;28;20166;-79
2022/11/28 09:18:02;;;;;;;10.02;2.80;;;8.10;73.20;;;;;;5078887;28;20133;-80
2022/11/28 09:20:47;;;;;;;5.50;2.30;;;8.10;73.10;;;;;;5080330;28;20517;-81
2022/11/28 09:23:31;;;;;;;6.57;2.67;;;8.10;73.00;;;;;;5084064;28;20127;-80
2022/11/28 09:26:21;;;;;;;5.90;2.47;;;8.20;73.20;;;;;;5082486;28;20047;-80
2022/11/28 09:29:05;;;;;;;10.50;2.80;;;8.20;73.20;;;;;;5078585;28;20094;-88
2022/11/28 09:31:50;;;;;;;5.65;2.10;;;8.20;73.10;;;;;;5074304;28;20042;-83
2022/11/28 09:34:35;;;;;;;9.25;2.38;;;8.20;73.10;;;;;;5087657;28;20185;-85
2022/11/28 09:37:19;;;;;;;9.30;2.85;;;8.20;73.10;;;;;;5075516;28;20510;-81
2022/11/28 09:40:04;;;;;;;6.75;2.83;;;8.20;73.60;;;;;;5080928;28;20047;-82
2022/11/28 09:42:49;;;;;;;5.22;2.00;;;8.20;73.10;;;;;;5104821;28;20226;-82
2022/11/28 09:45:33;;;;;;;6.30;2.42;;;8.30;73.30;;;;;;5104301;28;20059;-94
2022/11/28 09:48:40;;;;;;;7.07;2.55;;;8.30;73.20;;;;;;5097060;28;20047;-81
2022/11/28 09:51:51;;;;;;;7.28;1.88;;;8.30;73.20;;;;;;5080152;28;20038;-82
2022/11/28 09:54:50;;;;;;;9.13;3.75;;;8.30;73.20;;;;;;5085183;28;20040;-93
2022/11/28 09:57:42;;;;;;;7.47;2.30;;;8.40;73.30;;;;;;5087370;28;20093;-86
2022/11/28 10:00:36;;;;;;;4.95;2.15;;;8.40;73.30;;;;;;5069176;28;20043;-80
2022/11/28 10:03:29;;;;;;;7.15;1.88;;;8.40;73.30;;;;;;5071225;28;20056;-85
2022/11/28 10:06:29;;;;;;;8.25;1.85;;;8.40;73.30;;;;;;5081047;28;20123;-83
2022/11/28 10:09:34;;;;;;;6.18;1.58;;;8.40;73.20;;;;;;5078476;28;20548;-83
2022/11/28 10:12:51;;;;;;;7.38;1.98;;;8.50;73.40;;;;;;5084799;28;20142;-83
2022/11/28 10:15:50;;;;;;;8.25;1.90;;;8.50;73.30;;;;;;5077389;28;20368;-84
2022/11/28 10:18:37;;;;;;;6.13;1.60;;;8.60;73.40;;;;;;5078392;28;20035;-84
2022/11/28 10:21:42;;;;;;;11.98;1.80;;;8.70;73.50;;;;;;5082707;28;20048;-87
2022/11/28 10:24:43;;;;;;;6.68;1.73;;;8.70;73.50;;;;;;5082820;28;20039;-85
2022/11/28 10:27:33;;;;;;;7.10;2.35;;;8.70;73.50;;;;;;5072588;28;20203;-81
2022/11/28 10:30:27;;;;;;;8.45;1.75;;;8.80;73.50;;;;;;5073561;28;20417;-83
2022/11/28 10:33:21;;;;;;;6.75;1.50;;;8.80;73.50;;;;;;5087842;28;20106;-83
2022/11/28 10:36:11;;;;;;;5.95;2.17;;;8.90;73.60;;;;;;5083711;28;20035;-84
2022/11/28 10:38:58;;;;;;;6.57;1.98;;;8.90;73.50;;;;;;5085212;28;20035;-80
2022/11/28 10:42:13;;;;;;;6.28;1.58;;;9.00;73.70;;;;;;5049960;28;20126;-79
2022/11/28 10:45:22;;;;;;;10.45;1.70;;;9.00;73.70;;;;;;5082537;28;20055;-79
2022/11/28 10:48:25;;;;;;;6.43;1.40;;;9.10;73.70;;;;;;5071443;28;20450;-80
2022/11/28 10:51:44;;;;;;;4.85;1.58;;;9.10;73.70;;;;;;5084076;28;20391;-80
2022/11/28 10:54:53;;;;;;;5.35;1.92;;;9.10;73.60;;;;;;5053813;28;20046;-86
2022/11/28 10:57:51;;;;;;;10.23;1.98;;;9.20;74.20;;;;;;5086818;28;20051;-89
2022/11/28 11:00:36;;;;;;;6.55;2.10;;;9.20;73.70;;;;;;5083723;28;20486;-80
2022/11/28 11:03:32;;;;;;;9.07;1.92;;;9.30;73.80;;;;;;5081342;28;20043;-80
2022/11/28 11:06:16;;;;;;;6.47;1.90;;;9.30;73.80;;;;;;5078345;28;20039;-81
2022/11/28 11:09:01;;;;;;;8.82;1.85;;;9.30;73.70;;;;;;5076863;28;20564;-79
2022/11/28 11:11:56;;;;;;;5.72;1.52;;;9.40;73.80;;;;;;5076903;28;20066;-79
2022/11/28 11:14:40;;;;;;;4.55;1.67;;;9.50;74.00;;;;;;5086990;28;20169;-80
2022/11/28 11:17:32;;;;;;;7.00;1.90;;;9.50;73.90;;;;;;5084096;28;20035;-79
2022/11/28 11:20:38;;;;;;;11.20;2.10;;;9.60;74.00;;;;;;5083703;28;20481;-79
2022/11/28 11:23:23;;;;;;;9.05;2.60;;;9.70;74.10;;;;;;5086893;28;20078;-79
2022/11/28 11:26:18;;;;;;;9.63;1.83;;;9.70;73.90;;;;;;5074205;28;20086;-79
2022/11/28 11:29:04;;;;;;;7.53;1.40;;;9.80;74.00;;;;;;5086457;28;20043;-81
2022/11/28 11:31:51;;;;;;;10.95;1.80;;;9.80;73.90;;;;;;5074498;28;20518;-85
2022/11/28 11:34:42;;;;;;;8.23;1.60;;;9.90;74.00;;;;;;5086681;28;20042;-84
2022/11/28 11:37:33;;;;;;;7.78;1.73;;;10.00;74.00;;;;;;5075986;28;20090;-82
2022/11/28 11:40:28;;;;;;;12.90;1.67;;;10.10;74.00;;;;;;5084227;28;20047;-81
2022/11/28 11:43:34;;;;;;;5.32;1.67;;;10.20;74.00;;;;;;5075203;28;20043;-85
2022/11/28 11:46:19;;;;;;;6.43;2.15;;;10.30;74.00;;;;;;5070319;28;20047;-86
2022/11/28 11:49:03;;;;;;;6.35;1.55;;;10.30;73.90;;;;;;5081001;28;20050;-85
2022/11/28 11:51:56;;;;;;;5.28;1.27;;;10.40;73.90;;;;;;5085077;28;20387;-82
2022/11/28 11:54:56;;;;;;;8.05;1.63;;;10.40;73.90;;;;;;5075292;28;20040;-83
2022/11/28 11:57:49;;;;;;;7.07;1.55;;;10.40;73.90;;;;;;5074680;28;20115;-80
2022/11/28 12:00:38;;;;;;;6.45;1.63;;;10.40;73.90;;;;;;5088509;28;20051;-90
2022/11/28 12:03:31;;;;;;;8.05;2.45;;;10.50;74.10;;;;;;5090571;28;20066;-88
2022/11/28 12:06:27;;;;;;;8.40;2.00;;;10.50;74.10;;;;;;5071462;28;20125;-89
2022/11/28 12:09:30;;;;;;;;;;;10.60;74.30;;;;;;5078397;28;20038;-87
2022/11/28 12:12:22;;;;;;;9.35;1.95;;;10.60;74.20;;;;;;5074846;28;19914;-85
2022/11/28 12:15:28;;;;;;;8.48;1.60;;;10.60;74.00;;;;;;5083478;28;20121;-89
2022/11/28 12:18:42;;;;;;;7.70;1.92;;;10.70;74.10;;;;;;5087295;28;20043;-88
2022/11/28 12:21:41;;;;;;;8.17;1.60;;;10.70;74.10;;;;;;5083980;28;20081;-91
2022/11/28 12:25:04;;;;;;;4.60;1.55;;;10.70;74.10;;;;;;5080365;28;20031;-82
2022/11/28 12:28:17;;;;;;;8.38;1.40;;;10.70;74.20;;;;;;5089270;28;20107;-85
2022/11/28 12:31:13;;;;;;;7.75;1.58;;;10.70;74.20;;;;;;5084754;28;20062;-78
2022/11/28 12:34:25;;;;;;;7.07;2.25;;;10.70;74.20;;;;;;5085101;28;20051;-79
2022/11/28 12:37:19;;;;;;;7.38;1.77;;;10.70;74.20;;;;;;5080218;28;20096;-79
2022/11/28 12:40:23;;;;;;;6.90;1.58;;;10.80;74.30;;;;;;5087534;28;20054;-79
2022/11/28 12:43:22;;;;;;;5.30;1.10;;;10.80;74.30;;;;;;5083942;28;20109;-80
2022/11/28 12:46:23;;;;;;;7.00;1.55;;;10.80;74.30;;;;;;5081094;28;20085;-89
2022/11/28 12:49:18;;;;;;;4.50;1.60;;;10.80;74.30;;;;;;5077511;28;20126;-87
2022/11/28 12:52:37;;;;;;;5.28;1.60;;;10.90;74.40;;;;;;5081669;28;20026;-88
2022/11/28 12:55:47;;;;;;;5.28;1.40;;;11.00;74.40;;;;;;5085122;28;20039;-91
2022/11/28 12:58:49;;;;;;;6.20;1.30;;;11.00;74.20;;;;;;5078389;28;20051;-91
2022/11/28 13:01:59;;;;;;;9.07;1.77;;;11.00;74.10;;;;;;5084746;28;20044;-83
2022/11/28 13:05:02;;;;;;;5.13;1.15;;;11.10;74.30;;;;;;5085091;28;20054;-82
2022/11/28 13:07:55;;;;;;;3.08;1.15;;;11.10;74.20;;;;;;5075087;28;20429;-85
2022/11/28 13:11:22;;;;;;;4.03;1.13;;;11.20;74.30;;;;;;5085691;28;20403;-87
2022/11/28 13:14:09;;;;;;;13.88;1.83;;;11.30;74.20;;;;;;5075071;28;20046;-81
2022/11/28 13:16:56;;;;;;;5.93;1.10;;;11.40;74.10;;;;;;5080965;28;20039;-85
2022/11/28 13:20:03;;;;;;;4.00;1.05;;;11.50;74.10;;;;;;5080568;28;20514;-81
2022/11/28 13:23:02;;;;;;;3.55;1.02;;;11.50;73.90;;;;;;5083775;28;20059;-95
2022/11/28 13:25:52;;;;;;;3.50;1.42;;;11.50;73.90;;;;;;5075267;28;20038;-85
2022/11/28 13:28:46;;;;;;;5.72;1.27;;;11.50;73.90;;;;;;5072555;28;20526;-84
2022/11/28 13:31:46;;;;;;;5.50;1.42;;;11.50;73.90;;;;;;5079713;28;20078;-81
2022/11/28 13:34:30;;;;;;;7.78;1.33;;;11.50;74.00;;;;;;5083648;28;20124;-89
2022/11/28 13:37:29;;;;;;;4.97;1.27;;;11.50;74.00;;;;;;5083261;28;20089;-85
2022/11/28 13:40:32;;;;;;;7.82;1.80;;;11.50;74.00;;;;;;5075321;28;20035;-90
2022/11/28 13:43:23;;;;;;;3.17;0.85;;;11.40;73.80;;;;;;5083777;28;20169;-80
2022/11/28 13:46:08;;;;;;;3.22;1.00;;;11.40;73.90;;;;;;5073733;28;20082;-80
2022/11/28 13:49:06;;;;;;;4.45;1.30;;;11.40;73.90;;;;;;5082234;28;20159;-79
2022/11/28 13:52:33;;;;;;;5.80;2.05;;;11.40;73.90;;;;;;5085332;28;20047;-88
2022/11/28 13:55:38;;;;;;;5.53;1.30;;;11.40;73.80;;;;;;5081726;28;20090;-83
2022/11/28 13:58:24;;;;;;;3.80;1.40;;;11.40;73.80;;;;;;5078935;28;20082;-81
2022/11/28 14:01:14;;;;;;;3.05;1.25;;;11.40;73.70;;;;;;5076860;28;20399;-81
2022/11/28 14:04:08;;;;;;;6.53;1.25;;;11.50;73.80;;;;;;5082830;28;20051;-81
2022/11/28 14:06:59;;;;;;;4.63;1.23;;;11.40;73.50;;;;;;5083080;28;20517;-80
2022/11/28 14:10:08;;;;;;;5.97;1.63;;;11.40;73.50;;;;;;5084434;28;20477;-80
2022/11/28 14:13:07;;;;;;;7.72;2.20;;;11.50;73.60;;;;;;5084034;28;20035;-80
2022/11/28 14:16:37;;;;;;;2.50;1.00;;;11.40;73.50;;;;;;5079119;28;20063;-82
2022/11/28 14:19:47;;;;;;;6.72;1.45;;;11.40;73.30;;;;;;5082864;28;20046;-80
2022/11/28 14:23:00;;;;;;;4.15;1.60;;;11.40;73.30;;;;;;5085042;28;20501;-79
2022/11/28 14:25:48;;;;;;;4.25;1.45;;;11.40;73.30;;;;;;5082308;28;20047;-80
2022/11/28 14:28:39;;;;;;;9.18;2.08;;;11.40;73.30;;;;;;5090622;28;20054;-80
2022/11/28 14:31:37;;;;;;;4.90;1.38;;;11.40;73.20;;;;;;5084611;28;20556;-80
2022/11/28 14:34:37;;;;;;;3.85;1.48;;;11.50;73.30;;;;;;5085309;28;20217;-80
2022/11/28 14:37:33;;;;;;;6.10;1.60;;;11.50;73.20;;;;;;5085187;28;20425;-83
2022/11/28 14:40:58;;;;;;;5.50;1.52;;;11.50;73.10;;;;;;5087768;28;20058;-91
2022/11/28 14:43:45;;;;;;;6.90;1.55;;;11.50;73.00;;;;;;5079667;28;20086;-88
2022/11/28 14:46:32;;;;;;;6.30;2.20;;;11.50;73.00;;;;;;5083535;28;20345;-85
2022/11/28 14:49:18;;;;;;;6.28;1.60;;;11.50;73.00;;;;;;5087109;28;20593;-82
2022/11/28 14:52:07;;;;;;;8.35;2.45;;;11.50;73.00;;;;;;5085184;28;20057;-88
2022/11/28 14:54:52;;;;;;;6.50;2.10;;;11.50;73.00;;;;;;5086014;28;20444;-84
2022/11/28 14:58:01;;;;;;;8.80;2.55;;;11.50;73.00;;;;;;5087107;28;20309;-89
2022/11/28 15:00:54;;;;;;;6.68;2.30;;;11.40;72.70;;;;;;5090464;28;20131;-91